Decoded Metar for LTBJ (IZMIR in TURKEY) (IATA:ADB) | Meteo·Mobile Aviation Weather
aviador You're here:

LTBJ Decoded Metar

IZMIR in TURKEY
Report Time2019-06-27 08:20:00
UTC Time2019-06-27 08:38:39
Flight Rules vfr VFR
Wind360° at 18 kt
W.Decomp.*RWY 34: 17.2 kt HW 5.3 kt RCW
Visibility9999 m
Phenomena:N/A
Clouds:N/A
Expected CloudBase > 6,000 ft AGL from Temp-Dew spread
CeilingNone
Temp33°C (ISA +19)
Dew Point18°C (41% RH)
Heat Index34.0°C
AAT29.3°C
QNH1009 hPa
Density Alt2,943 ft
Elevation394 ft
Report Wrong Elevation
Raw Report
LTBJ 270820Z 36018KT CAVOK 33/18 Q1009 NOSIG=

Extra information for LTBJ:More info

Metar Taf Metar & Taf Last 4 Metars F.Rules Stats Wind Profile Meteogram Temp Stats Airport Information Weather charts Add Link Nearby VenuesMetar ALERT Operation Metar Decoded Social comments